Time;durP1;ratioP1;P1;durP2;ratioP2;P2;SDS_P1;SDS_P2;PMS_P1;PMS_P2;Temp;Humidity;BMP_temperature;BMP_pressure;BME280_temperature;BME280_humidity;BME280_pressure;Samples;Min_cycle;Max_cycle;Signal;HPM_P1;HPM_P2
2022/08/27 00:01:25;;;;;;;13.23;12.02;;;19.70;99.90;;;;;;5000525;28;20186;-55
2022/08/27 00:03:53;;;;;;;13.67;12.33;;;19.70;99.90;;;;;;5006509;28;20538;-54
2022/08/27 00:06:20;;;;;;;15.20;13.63;;;19.60;99.90;;;;;;5007745;28;20633;-54
2022/08/27 00:08:46;;;;;;;15.82;14.32;;;19.60;99.90;;;;;;5007587;28;20187;-56
2022/08/27 00:11:12;;;;;;;15.20;13.30;;;19.60;99.90;;;;;;5002568;28;20210;-56
2022/08/27 00:13:39;;;;;;;15.80;14.20;;;19.60;99.90;;;;;;5009632;28;20253;-54
2022/08/27 00:16:07;;;;;;;14.85;13.25;;;19.60;99.90;;;;;;5009255;28;20172;-55
2022/08/27 00:18:34;;;;;;;16.95;13.60;;;19.60;99.90;;;;;;5007490;28;20647;-54
2022/08/27 00:21:01;;;;;;;16.20;14.63;;;19.60;99.90;;;;;;5002345;28;20281;-54
2022/08/27 00:23:27;;;;;;;17.70;15.18;;;19.60;99.90;;;;;;5008789;28;20241;-55
2022/08/27 00:25:52;;;;;;;17.65;15.95;;;19.60;99.90;;;;;;5010361;28;20537;-56
2022/08/27 00:28:18;;;;;;;17.17;15.57;;;19.50;99.90;;;;;;5009246;28;20237;-55
2022/08/27 00:30:44;;;;;;;19.57;17.67;;;19.50;99.90;;;;;;5002678;28;20705;-55
2022/08/27 00:33:09;;;;;;;20.30;18.20;;;19.50;99.90;;;;;;5009244;28;20265;-56
2022/08/27 00:35:36;;;;;;;17.50;15.80;;;19.60;99.90;;;;;;5010054;28;20179;-56
2022/08/27 00:38:04;;;;;;;20.15;18.15;;;19.50;99.90;;;;;;5005690;28;20179;-56
2022/08/27 00:40:32;;;;;;;20.02;17.92;;;19.60;99.90;;;;;;5010924;28;20670;-56
2022/08/27 00:43:00;;;;;;;19.75;18.02;;;19.50;99.90;;;;;;5012718;28;20174;-55
2022/08/27 00:45:26;;;;;;;18.00;16.30;;;19.50;99.90;;;;;;5010454;28;20278;-54
2022/08/27 00:47:55;;;;;;;19.20;17.40;;;19.50;99.90;;;;;;5013273;28;20266;-54
2022/08/27 00:50:34;;;;;;;23.88;18.38;;;19.50;99.90;;;;;;5009345;28;20615;-54
2022/08/27 00:53:09;;;;;;;18.77;16.90;;;19.40;99.90;;;;;;5011898;28;20207;-55
2022/08/27 00:55:43;;;;;;;18.58;16.63;;;19.50;99.90;;;;;;5007668;28;20190;-55
2022/08/27 00:58:17;;;;;;;19.65;17.73;;;19.50;99.90;;;;;;5011492;28;20182;-57
2022/08/27 01:00:45;;;;;;;22.85;20.45;;;19.70;99.90;;;;;;5006830;28;20303;-56
2022/08/27 01:03:12;;;;;;;23.40;20.95;;;19.70;99.90;;;;;;5011255;28;20191;-56
2022/08/27 01:05:40;;;;;;;22.90;20.58;;;19.80;99.90;;;;;;5012537;28;20278;-55
2022/08/27 01:08:16;;;;;;;22.05;19.75;;;19.80;99.90;;;;;;5009493;28;20179;-58
2022/08/27 01:10:43;;;;;;;24.45;22.05;;;19.90;99.90;;;;;;5010419;28;20213;-56
2022/08/27 01:13:11;;;;;;;23.30;20.90;;;19.80;99.90;;;;;;5012700;28;20210;-56
2022/08/27 01:15:39;;;;;;;25.17;22.50;;;19.80;99.90;;;;;;5011344;28;20253;-56
2022/08/27 01:18:07;;;;;;;24.80;22.45;;;19.80;99.90;;;;;;5009475;28;20180;-56
2022/08/27 01:20:42;;;;;;;28.30;25.48;;;19.70;99.90;;;;;;5004222;28;20199;-56
2022/08/27 01:23:24;;;;;;;27.38;24.30;;;19.60;99.90;;;;;;5011430;28;20189;-55
2022/08/27 01:25:50;;;;;;;28.50;25.45;;;19.60;99.90;;;;;;5012406;28;20179;-55
2022/08/27 01:28:16;;;;;;;28.20;24.33;;;19.50;99.90;;;;;;5010719;28;20249;-55
2022/08/27 01:30:43;;;;;;;27.80;24.83;;;19.60;99.90;;;;;;5004761;28;20730;-55
2022/08/27 01:33:20;;;;;;;29.95;26.73;;;19.70;99.90;;;;;;5012035;28;20276;-56
2022/08/27 01:35:48;;;;;;;27.33;24.42;;;19.80;99.90;;;;;;5010446;28;20570;-55
2022/08/27 01:38:15;;;;;;;28.10;25.20;;;19.70;99.90;;;;;;5005446;28;20179;-55
2022/08/27 01:40:41;;;;;;;30.77;26.02;;;19.70;99.90;;;;;;5004395;28;20235;-57
2022/08/27 01:43:07;;;;;;;29.53;26.47;;;19.60;99.90;;;;;;5012392;28;20222;-56
2022/08/27 01:45:39;;;;;;;28.75;25.85;;;19.60;99.90;;;;;;5011825;28;20958;-57
2022/08/27 01:48:06;;;;;;;30.55;27.20;;;19.60;99.90;;;;;;5003741;28;20198;-56
2022/08/27 01:50:35;;;;;;;28.63;25.65;;;19.60;99.90;;;;;;5005364;28;20568;-55
2022/08/27 01:53:04;;;;;;;28.73;25.63;;;19.60;99.90;;;;;;5005968;28;20215;-55
2022/08/27 01:55:30;;;;;;;30.50;25.88;;;19.60;99.90;;;;;;5007438;28;20176;-58
2022/08/27 01:57:55;;;;;;;30.00;26.73;;;19.50;99.90;;;;;;5010324;28;21612;-56
2022/08/27 02:00:35;;;;;;;28.37;25.47;;;19.50;99.90;;;;;;5007803;28;20206;-56
2022/08/27 02:03:02;;;;;;;27.77;24.85;;;19.50;99.90;;;;;;5010889;28;20675;-57
2022/08/27 02:05:28;;;;;;;28.45;25.45;;;19.50;99.90;;;;;;5011855;28;20183;-55
2022/08/27 02:07:54;;;;;;;28.92;25.92;;;19.50;99.90;;;;;;5010642;28;20187;-57
2022/08/27 02:10:30;;;;;;;28.38;25.38;;;19.40;99.90;;;;;;5008256;28;20202;-55
2022/08/27 02:12:56;;;;;;;27.25;24.40;;;19.30;99.90;;;;;;5010319;28;20686;-56
2022/08/27 02:15:23;;;;;;;30.10;26.47;;;19.40;99.90;;;;;;5007303;28;20191;-57
2022/08/27 02:17:49;;;;;;;29.48;26.27;;;19.50;99.90;;;;;;5005529;28;20179;-55
2022/08/27 02:20:15;;;;;;;28.90;25.95;;;19.60;99.90;;;;;;5009209;28;20257;-56
2022/08/27 02:22:42;;;;;;;29.75;23.77;;;19.60;99.90;;;;;;5009431;28;20187;-55
2022/08/27 02:25:11;;;;;;;27.77;24.88;;;19.60;99.90;;;;;;5006850;28;20189;-56
2022/08/27 02:27:37;;;;;;;27.40;24.00;;;19.60;99.90;;;;;;5011259;28;20751;-56
2022/08/27 02:30:04;;;;;;;27.92;23.27;;;19.60;99.90;;;;;;5005281;28;20210;-55
2022/08/27 02:32:31;;;;;;;28.55;23.40;;;19.60;99.90;;;;;;5011848;28;20266;-55
2022/08/27 02:34:57;;;;;;;27.02;24.33;;;19.60;99.90;;;;;;5011511;28;21141;-54
2022/08/27 02:37:23;;;;;;;28.30;25.33;;;19.50;99.90;;;;;;5007990;28;20233;-57
2022/08/27 02:39:48;;;;;;;32.60;24.50;;;19.50;99.90;;;;;;5005353;28;20207;-56
2022/08/27 02:42:14;;;;;;;25.10;22.47;;;19.50;99.90;;;;;;5010904;28;20187;-54
2022/08/27 02:44:40;;;;;;;26.40;23.60;;;19.60;99.90;;;;;;5011400;28;20185;-55
2022/08/27 02:47:05;;;;;;;24.20;21.07;;;19.80;99.90;;;;;;5006242;28;20226;-55
2022/08/27 02:49:32;;;;;;;24.53;22.03;;;19.80;99.90;;;;;;5009085;28;20219;-54
2022/08/27 02:51:58;;;;;;;26.40;23.83;;;19.80;99.90;;;;;;5008941;28;20179;-55
2022/08/27 02:54:25;;;;;;;24.17;21.60;;;19.80;99.90;;;;;;5010505;28;20573;-56
2022/08/27 02:56:52;;;;;;;25.27;22.55;;;19.80;99.90;;;;;;5007790;28;20182;-55
2022/08/27 02:59:18;;;;;;;25.95;23.25;;;19.90;99.90;;;;;;5021112;23;20801;-62
2022/08/27 03:01:43;;;;;;;25.73;22.93;;;20.00;99.90;;;;;;5010213;28;20195;-62
2022/08/27 03:04:09;;;;;;;26.53;23.73;;;20.00;99.90;;;;;;5011203;28;20274;-62
2022/08/27 03:06:35;;;;;;;25.98;23.20;;;20.00;99.90;;;;;;5010741;28;20186;-62
2022/08/27 03:09:01;;;;;;;26.50;23.80;;;20.00;99.90;;;;;;5006944;28;20191;-62
2022/08/27 03:11:26;;;;;;;28.77;25.83;;;20.00;99.90;;;;;;5010757;28;20207;-62
2022/08/27 03:13:52;;;;;;;27.63;24.80;;;20.00;99.90;;;;;;5011059;28;20238;-62
2022/08/27 03:16:18;;;;;;;25.97;23.30;;;19.90;99.90;;;;;;5008481;28;20210;-63
2022/08/27 03:18:44;;;;;;;24.57;22.07;;;19.80;99.90;;;;;;5004329;28;20179;-63
2022/08/27 03:21:23;;;;;;;26.47;23.83;;;19.90;99.90;;;;;;5007278;28;20337;-63
2022/08/27 03:23:49;;;;;;;25.45;22.60;;;20.00;99.90;;;;;;5009953;28;20442;-63
2022/08/27 03:26:15;;;;;;;27.17;24.50;;;20.00;99.90;;;;;;5010312;28;20582;-63
2022/08/27 03:28:41;;;;;;;25.35;22.77;;;19.80;99.90;;;;;;5008559;28;20488;-63
2022/08/27 03:31:19;;;;;;;25.30;22.90;;;19.70;99.90;;;;;;5005091;28;20328;-60
2022/08/27 03:33:44;;;;;;;26.35;23.73;;;19.80;99.90;;;;;;5010507;28;20472;-63
2022/08/27 03:36:10;;;;;;;26.33;23.67;;;19.80;99.90;;;;;;5010172;28;20175;-63
2022/08/27 03:38:36;;;;;;;22.73;20.63;;;19.70;99.90;;;;;;5005393;28;20183;-63
2022/08/27 03:41:03;;;;;;;20.23;18.33;;;19.80;99.90;;;;;;5000761;28;20332;-63
2022/08/27 03:43:29;;;;;;;20.75;18.75;;;19.90;99.90;;;;;;5010083;28;20187;-63
2022/08/27 03:45:55;;;;;;;20.17;18.23;;;19.90;99.90;;;;;;5008742;28;20198;-62
2022/08/27 03:48:21;;;;;;;19.40;17.57;;;19.80;99.90;;;;;;5009060;28;20187;-62
2022/08/27 03:50:48;;;;;;;18.57;16.67;;;19.70;99.90;;;;;;5006579;28;20565;-63
2022/08/27 03:53:15;;;;;;;18.67;16.77;;;19.70;99.90;;;;;;5008813;28;20464;-63
2022/08/27 03:55:41;;;;;;;19.08;17.27;;;19.70;99.90;;;;;;5008457;28;20175;-62
2022/08/27 03:58:11;;;;;;;19.03;17.23;;;19.80;99.90;;;;;;5009711;28;20171;-62
2022/08/27 04:00:38;;;;;;;19.20;17.40;;;19.80;99.90;;;;;;4998166;28;20488;-62
2022/08/27 04:03:04;;;;;;;19.35;17.65;;;19.80;99.90;;;;;;5010299;28;20276;-61
2022/08/27 04:05:31;;;;;;;20.83;18.83;;;19.80;99.90;;;;;;5009203;28;20191;-62
2022/08/27 04:07:56;;;;;;;21.42;19.20;;;19.70;99.90;;;;;;5008394;28;20707;-61
2022/08/27 04:10:22;;;;;;;21.50;19.20;;;19.70;99.90;;;;;;5007298;28;20257;-61
2022/08/27 04:12:48;;;;;;;21.97;19.77;;;19.60;99.90;;;;;;5008897;28;20207;-61
2022/08/27 04:15:13;;;;;;;22.33;20.03;;;19.60;99.90;;;;;;5014188;28;20930;-61
2022/08/27 04:17:40;;;;;;;22.50;20.10;;;19.50;99.90;;;;;;5012878;28;20270;-61
2022/08/27 04:20:07;;;;;;;22.48;20.15;;;19.00;99.90;;;;;;5006896;28;20211;-61
2022/08/27 04:22:33;;;;;;;20.02;18.10;;;19.40;99.90;;;;;;5012469;28;20252;-62
2022/08/27 04:24:59;;;;;;;22.55;20.15;;;19.50;99.90;;;;;;5009666;28;20190;-62
2022/08/27 04:27:26;;;;;;;21.23;19.30;;;19.50;99.90;;;;;;5012557;28;20623;-62
2022/08/27 04:29:56;;;;;;;20.92;18.83;;;19.60;99.90;;;;;;5008826;28;20496;-62
2022/08/27 04:32:23;;;;;;;20.80;18.80;;;19.70;99.90;;;;;;5009303;28;20197;-62
2022/08/27 04:34:56;;;;;;;23.00;20.63;;;19.80;99.90;;;;;;5010443;28;20582;-60
2022/08/27 04:37:23;;;;;;;24.98;22.48;;;19.70;99.90;;;;;;5013584;28;20187;-61
2022/08/27 04:39:49;;;;;;;23.00;20.52;;;19.70;99.90;;;;;;5004586;28;20211;-62
2022/08/27 04:42:17;;;;;;;20.83;18.85;;;20.00;99.90;;;;;;5010189;28;20265;-60
2022/08/27 04:44:43;;;;;;;23.75;21.25;;;19.90;99.90;;;;;;5012532;28;20183;-62
2022/08/27 04:47:09;;;;;;;26.23;23.73;;;20.00;99.90;;;;;;5010829;28;20191;-61
2022/08/27 04:49:35;;;;;;;23.67;21.30;;;20.00;99.90;;;;;;5010633;28;20273;-61
2022/08/27 04:52:01;;;;;;;26.37;23.77;;;20.00;99.90;;;;;;5012160;28;20245;-61
2022/08/27 04:54:27;;;;;;;29.10;24.05;;;20.00;99.90;;;;;;5012305;28;20246;-62
2022/08/27 04:56:53;;;;;;;28.10;25.23;;;20.00;99.90;;;;;;5010053;28;20270;-63
2022/08/27 04:59:19;;;;;;;28.83;25.80;;;19.70;99.90;;;;;;5005563;28;20235;-62
2022/08/27 05:01:44;;;;;;;31.57;28.33;;;20.00;99.90;;;;;;5007837;28;20497;-61
2022/08/27 05:04:13;;;;;;;30.23;27.00;;;20.00;99.90;;;;;;5014780;28;20537;-61
2022/08/27 05:06:39;;;;;;;31.35;28.15;;;20.20;99.90;;;;;;5010537;28;20182;-62
2022/08/27 05:09:05;;;;;;;30.77;27.57;;;19.90;99.90;;;;;;5007870;28;20660;-63
2022/08/27 05:11:34;;;;;;;32.37;28.73;;;20.00;99.90;;;;;;5007708;28;20175;-63
2022/08/27 05:14:05;;;;;;;29.30;26.05;;;20.00;99.90;;;;;;5011200;28;20460;-63
2022/08/27 05:16:31;;;;;;;28.73;25.63;;;20.10;99.90;;;;;;5012635;28;20278;-62
2022/08/27 05:18:58;;;;;;;32.40;28.97;;;20.20;99.90;;;;;;5006559;28;20274;-62
2022/08/27 05:21:27;;;;;;;31.23;27.85;;;20.00;99.90;;;;;;5006760;28;20441;-63
2022/08/27 05:23:55;;;;;;;29.33;26.45;;;19.90;99.90;;;;;;5009411;28;20214;-63
2022/08/27 05:26:21;;;;;;;35.08;27.67;;;19.90;99.90;;;;;;5012526;28;20547;-63
2022/08/27 05:28:47;;;;;;;29.83;26.70;;;20.10;99.90;;;;;;5006052;28;20211;-61
2022/08/27 05:31:14;;;;;;;31.43;28.27;;;20.20;99.90;;;;;;5008112;28;20229;-61
2022/08/27 05:33:41;;;;;;;31.10;26.45;;;20.30;99.90;;;;;;5008497;28;20477;-62
2022/08/27 05:36:14;;;;;;;30.00;26.95;;;19.90;99.90;;;;;;5004150;28;20175;-62
2022/08/27 05:38:41;;;;;;;31.98;28.55;;;20.10;99.90;;;;;;5008290;28;20552;-62
2022/08/27 05:41:10;;;;;;;31.58;28.15;;;20.10;99.90;;;;;;5002574;28;20179;-61
2022/08/27 05:43:37;;;;;;;31.33;27.92;;;20.10;99.90;;;;;;5005628;28;20176;-62
2022/08/27 05:46:07;;;;;;;30.58;27.40;;;20.20;99.90;;;;;;5008423;28;20179;-62
2022/08/27 05:48:35;;;;;;;32.75;29.35;;;20.20;99.90;;;;;;5008149;28;20190;-63
2022/08/27 05:51:20;;;;;;;31.60;28.20;;;20.10;99.90;;;;;;5008531;28;20222;-62
2022/08/27 05:53:46;;;;;;;29.95;26.95;;;20.10;99.90;;;;;;5009219;28;20254;-62
2022/08/27 05:56:21;;;;;;;30.33;26.92;;;20.20;99.90;;;;;;5011163;28;20198;-62
2022/08/27 06:01:36;;;;;;;28.08;24.98;;;20.10;99.90;;;;;;5007771;28;20237;-63
2022/08/27 06:04:03;;;;;;;32.85;27.45;;;20.20;99.90;;;;;;5010968;28;20192;-66
2022/08/27 06:06:29;;;;;;;30.63;27.40;;;20.40;99.90;;;;;;5009480;28;20233;-71
2022/08/27 06:08:55;;;;;;;29.33;26.27;;;20.50;99.90;;;;;;5003632;28;20191;-67
2022/08/27 06:11:21;;;;;;;32.80;26.93;;;20.70;99.90;;;;;;5003100;28;20182;-67
2022/08/27 06:13:47;;;;;;;32.00;28.67;;;20.60;99.90;;;;;;5010449;28;20232;-62
2022/08/27 06:16:16;;;;;;;31.63;28.30;;;20.60;99.90;;;;;;5010768;28;20526;-66
2022/08/27 06:18:43;;;;;;;31.30;27.60;;;20.70;99.90;;;;;;5010999;28;20182;-66
2022/08/27 06:21:10;;;;;;;30.83;26.25;;;20.70;99.90;;;;;;5007514;28;20183;-66
2022/08/27 06:23:36;;;;;;;32.20;28.98;;;20.60;99.90;;;;;;5010823;28;20549;-66
2022/08/27 06:26:06;;;;;;;32.93;29.47;;;20.60;99.90;;;;;;5010649;28;20183;-64
2022/08/27 06:28:32;;;;;;;32.42;29.00;;;20.50;99.90;;;;;;5009315;28;21049;-64
2022/08/27 06:31:06;;;;;;;31.85;28.42;;;20.50;99.90;;;;;;5003069;28;20290;-65
2022/08/27 06:33:33;;;;;;;31.33;28.23;;;20.50;99.90;;;;;;5011563;28;20242;-63
2022/08/27 06:36:04;;;;;;;25.92;23.23;;;20.60;99.90;;;;;;5006584;28;20273;-66
2022/08/27 06:38:30;;;;;;;32.20;28.88;;;20.70;99.90;;;;;;5016348;28;20187;-63
2022/08/27 06:40:57;;;;;;;31.63;28.08;;;20.70;99.90;;;;;;5005116;28;20242;-60
2022/08/27 06:43:23;;;;;;;31.92;28.83;;;20.70;99.90;;;;;;5015044;28;20323;-60
2022/08/27 06:45:49;;;;;;;30.25;27.25;;;20.80;99.90;;;;;;5007236;28;20533;-61
2022/08/27 06:48:15;;;;;;;31.40;28.05;;;20.70;99.90;;;;;;5010597;28;20175;-62
2022/08/27 06:50:42;;;;;;;29.00;26.00;;;20.80;99.90;;;;;;5002491;28;20564;-65
2022/08/27 06:53:08;;;;;;;31.23;27.60;;;20.90;99.90;;;;;;5011735;28;20203;-64
2022/08/27 06:55:45;;;;;;;31.30;28.00;;;20.90;99.90;;;;;;5010805;28;20183;-64
2022/08/27 06:58:12;;;;;;;31.10;28.00;;;20.90;99.90;;;;;;5006351;28;20179;-66
2022/08/27 07:00:38;;;;;;;31.85;28.55;;;20.70;99.90;;;;;;5011617;28;20783;-64
2022/08/27 07:03:05;;;;;;;31.17;27.90;;;20.60;99.90;;;;;;5007300;28;20723;-63
2022/08/27 07:05:35;;;;;;;30.90;27.67;;;20.80;99.90;;;;;;5016261;28;20189;-66
2022/08/27 07:08:02;;;;;;;29.77;26.90;;;20.90;99.90;;;;;;5005705;28;20198;-65
2022/08/27 07:10:29;;;;;;;29.08;26.30;;;21.00;99.90;;;;;;5003536;28;20214;-65
2022/08/27 07:12:54;;;;;;;28.77;26.00;;;21.10;99.90;;;;;;5008801;28;20199;-65
2022/08/27 07:15:20;;;;;;;29.00;25.83;;;21.20;99.90;;;;;;5008321;28;20233;-67
2022/08/27 07:17:46;;;;;;;28.73;25.90;;;21.30;99.90;;;;;;5009150;28;20629;-67
2022/08/27 07:20:14;;;;;;;30.13;26.93;;;21.40;99.90;;;;;;5008787;28;20285;-69
2022/08/27 07:22:44;;;;;;;30.25;26.55;;;21.40;99.90;;;;;;5007791;28;20434;-67
2022/08/27 07:25:13;;;;;;;29.70;26.63;;;21.50;99.90;;;;;;5008023;28;20179;-62
2022/08/27 07:27:39;;;;;;;30.10;27.17;;;21.70;99.90;;;;;;5007479;28;20175;-60
2022/08/27 07:30:08;;;;;;;28.27;25.37;;;21.70;99.90;;;;;;5007030;28;20284;-62
2022/08/27 07:32:33;;;;;;;28.73;25.73;;;21.80;99.90;;;;;;5010000;28;20606;-62
2022/08/27 07:34:59;;;;;;;28.37;25.40;;;21.80;99.90;;;;;;5005486;28;20217;-62
2022/08/27 07:37:24;;;;;;;28.20;25.43;;;21.80;99.90;;;;;;5003201;28;20185;-60
2022/08/27 07:39:50;;;;;;;29.17;26.27;;;21.60;99.90;;;;;;5005912;28;20206;-60
2022/08/27 07:45:00;;;;;;;29.30;26.40;;;21.50;99.90;;;;;;5007575;28;20614;-61
2022/08/27 07:47:26;;;;;;;29.20;26.30;;;21.40;99.90;;;;;;5002696;28;20282;-60
2022/08/27 07:49:51;;;;;;;27.03;24.30;;;21.30;99.90;;;;;;5004309;28;20289;-61
2022/08/27 07:52:17;;;;;;;26.87;24.10;;;21.30;99.90;;;;;;5004723;28;20211;-62
2022/08/27 07:54:43;;;;;;;29.20;26.50;;;21.40;99.90;;;;;;5006959;28;20268;-61
2022/08/27 07:57:10;;;;;;;31.03;27.33;;;21.50;99.90;;;;;;5009504;28;20310;-61
2022/08/27 07:59:36;;;;;;;29.85;26.88;;;21.60;99.90;;;;;;5007986;28;20473;-61
2022/08/27 08:02:02;;;;;;;31.75;28.35;;;21.60;99.90;;;;;;5002528;28;20186;-62
2022/08/27 08:04:28;;;;;;;33.47;27.00;;;21.60;99.90;;;;;;5008768;28;20186;-60
2022/08/27 08:06:54;;;;;;;29.53;26.63;;;21.70;99.90;;;;;;5008897;28;20209;-61
2022/08/27 08:09:22;;;;;;;29.08;26.27;;;21.60;99.90;;;;;;5005112;28;20203;-60
2022/08/27 08:11:49;;;;;;;32.83;29.23;;;21.70;99.90;;;;;;5005394;28;20199;-62
2022/08/27 08:14:15;;;;;;;31.77;27.80;;;21.60;99.90;;;;;;5009528;28;20209;-60
2022/08/27 08:16:40;;;;;;;32.00;28.77;;;21.50;99.90;;;;;;5007557;28;20569;-61
2022/08/27 08:19:07;;;;;;;30.00;27.00;;;21.20;99.90;;;;;;5006856;28;20519;-60
2022/08/27 08:21:34;;;;;;;32.53;29.35;;;21.30;99.90;;;;;;5007470;28;20676;-61
2022/08/27 08:24:01;;;;;;;35.50;31.77;;;21.10;99.90;;;;;;5008401;28;20187;-63
2022/08/27 08:26:27;;;;;;;34.67;31.17;;;21.10;99.90;;;;;;5008514;28;20281;-62
2022/08/27 08:28:53;;;;;;;30.90;27.95;;;21.10;99.90;;;;;;5006763;28;20207;-65
2022/08/27 08:31:19;;;;;;;33.15;29.85;;;21.20;99.90;;;;;;5005537;28;20214;-62
2022/08/27 08:33:46;;;;;;;31.40;28.40;;;21.30;99.90;;;;;;5009521;28;20633;-64
2022/08/27 08:36:14;;;;;;;34.78;31.17;;;21.40;99.90;;;;;;5009061;28;20438;-62
2022/08/27 08:38:41;;;;;;;34.00;30.50;;;21.30;99.90;;;;;;5007818;28;20709;-63
2022/08/27 08:41:34;;;;;;;34.67;31.08;;;21.30;99.90;;;;;;5006759;28;20623;-63
2022/08/27 08:44:07;;;;;;;38.50;31.85;;;21.30;99.90;;;;;;5009518;28;20183;-65
2022/08/27 08:46:44;;;;;;;33.42;30.00;;;21.10;99.90;;;;;;5009008;28;20179;-64
2022/08/27 08:49:29;;;;;;;34.20;29.75;;;21.00;99.90;;;;;;5002826;28;20215;-65
2022/08/27 08:51:57;;;;;;;36.50;32.75;;;21.10;99.90;;;;;;5006493;28;20195;-73
2022/08/27 08:54:25;;;;;;;35.40;30.35;;;21.10;99.90;;;;;;5007950;28;20360;-67
2022/08/27 08:57:00;;;;;;;34.70;30.27;;;21.00;99.90;;;;;;5009157;28;20187;-68
2022/08/27 08:59:34;;;;;;;35.20;31.20;;;21.50;99.90;;;;;;5002992;28;20212;-65
2022/08/27 09:02:00;;;;;;;37.10;33.10;;;21.20;99.90;;;;;;5007490;28;20187;-63
2022/08/27 09:04:28;;;;;;;38.10;30.77;;;21.20;99.90;;;;;;5012898;28;20182;-65
2022/08/27 09:07:02;;;;;;;33.75;30.20;;;21.20;99.90;;;;;;5006411;28;20183;-64
2022/08/27 09:09:52;;;;;;;32.75;28.80;;;21.30;99.90;;;;;;5003509;28;20687;-64
2022/08/27 09:12:31;;;;;;;35.75;30.10;;;21.30;99.90;;;;;;5011002;28;20188;-65
2022/08/27 09:15:11;;;;;;;33.38;29.80;;;21.40;99.90;;;;;;5007232;28;20657;-66
2022/08/27 09:17:37;;;;;;;32.13;28.67;;;21.40;99.90;;;;;;5014629;28;20190;-65
2022/08/27 09:20:06;;;;;;;32.47;29.07;;;21.40;99.90;;;;;;5010211;28;20217;-64
2022/08/27 09:23:03;;;;;;;31.00;27.70;;;21.50;99.90;;;;;;5001690;28;20493;-64
2022/08/27 09:25:33;;;;;;;29.33;26.00;;;21.40;99.90;;;;;;5006783;28;20198;-65
2022/08/27 09:29:14;;;;;;;24.15;21.88;;;21.50;99.90;;;;;;5010299;28;20202;-64
2022/08/27 09:30:54;;;;;;;26.35;23.50;;;21.40;99.90;;;;;;5009699;28;20226;-63
2022/08/27 09:33:20;;;;;;;26.67;23.88;;;21.30;99.90;;;;;;5009118;28;20225;-63
2022/08/27 09:35:46;;;;;;;23.02;20.83;;;21.20;99.90;;;;;;5008886;28;20215;-64
2022/08/27 09:38:30;;;;;;;16.27;14.87;;;21.10;99.90;;;;;;5009852;28;20279;-63
2022/08/27 09:41:00;;;;;;;14.32;13.10;;;21.30;99.90;;;;;;5001250;28;20195;-63
2022/08/27 09:43:29;;;;;;;16.60;15.30;;;21.40;99.90;;;;;;5005229;28;20290;-64
2022/08/27 09:46:20;;;;;;;14.50;13.20;;;21.40;99.90;;;;;;5009881;28;20663;-64
2022/08/27 09:48:46;;;;;;;15.25;13.85;;;21.50;99.90;;;;;;5006095;28;20187;-64
2022/08/27 09:51:16;;;;;;;16.38;14.60;;;21.60;99.90;;;;;;5008691;28;20189;-64
2022/08/27 09:53:52;;;;;;;15.30;13.80;;;21.60;99.90;;;;;;5009708;28;20225;-64
2022/08/27 09:56:39;;;;;;;17.33;15.83;;;21.60;99.90;;;;;;5009021;28;20182;-65
2022/08/27 09:59:11;;;;;;;17.77;16.13;;;21.80;99.90;;;;;;5005980;28;20517;-65
2022/08/27 10:02:13;;;;;;;16.55;14.98;;;21.80;99.90;;;;;;5003990;28;20171;-65
2022/08/27 10:04:47;;;;;;;17.95;16.40;;;21.90;99.90;;;;;;5005768;28;20582;-66
2022/08/27 10:07:45;;;;;;;17.17;15.57;;;21.80;99.90;;;;;;5009765;28;20592;-64
2022/08/27 10:10:20;;;;;;;16.60;15.18;;;21.70;99.90;;;;;;5004285;28;20543;-66
2022/08/27 10:13:18;;;;;;;14.40;13.20;;;21.80;99.90;;;;;;5008512;28;20186;-65
2022/08/27 10:16:11;;;;;;;16.15;14.65;;;21.90;99.90;;;;;;5007956;28;20182;-65
2022/08/27 10:18:59;;;;;;;14.75;13.55;;;21.50;99.90;;;;;;5003777;28;20186;-65
2022/08/27 10:21:50;;;;;;;14.57;13.27;;;21.50;99.90;;;;;;4998623;28;20176;-64
2022/08/27 10:24:27;;;;;;;14.90;13.63;;;21.70;99.90;;;;;;4998857;28;20195;-65
2022/08/27 10:27:23;;;;;;;17.08;15.63;;;21.80;99.90;;;;;;4985864;28;20442;-66
2022/08/27 10:30:03;;;;;;;16.90;15.38;;;21.70;99.90;;;;;;5002909;28;20211;-64
2022/08/27 10:32:37;;;;;;;15.50;14.07;;;21.90;99.90;;;;;;5006434;28;20219;-65
2022/08/27 10:35:20;;;;;;;20.25;18.55;;;21.90;99.90;;;;;;5007939;28;20240;-65
2022/08/27 10:37:52;;;;;;;18.92;17.02;;;21.90;99.90;;;;;;5006469;28;20263;-66
2022/08/27 10:40:48;;;;;;;18.53;16.67;;;22.10;99.90;;;;;;5011276;28;20557;-66
2022/08/27 10:43:42;;;;;;;19.30;17.40;;;22.20;99.90;;;;;;5010065;28;20441;-66
2022/08/27 10:46:46;;;;;;;18.60;16.90;;;21.90;99.90;;;;;;5003917;28;21235;-66
2022/08/27 10:49:35;;;;;;;19.75;17.88;;;21.90;99.90;;;;;;5009828;28;20809;-65
2022/08/27 10:52:21;;;;;;;20.50;18.60;;;21.70;99.90;;;;;;5009717;28;20175;-65
2022/08/27 10:54:52;;;;;;;21.23;19.33;;;21.80;99.90;;;;;;5010141;28;20798;-65
2022/08/27 10:57:27;;;;;;;19.45;17.45;;;21.80;99.90;;;;;;5008721;28;20190;-66
2022/08/27 11:00:03;;;;;;;19.25;17.65;;;22.00;99.90;;;;;;5008098;28;20230;-64
2022/08/27 11:02:42;;;;;;;20.92;18.83;;;22.10;99.90;;;;;;5004918;28;20269;-65
2022/08/27 11:05:19;;;;;;;19.33;17.60;;;21.90;99.90;;;;;;5004585;28;20194;-64
2022/08/27 11:08:11;;;;;;;18.90;17.10;;;22.00;99.90;;;;;;5008626;28;20869;-65
2022/08/27 11:10:43;;;;;;;19.17;17.58;;;21.90;99.90;;;;;;4999482;28;20219;-65
2022/08/27 11:13:24;;;;;;;19.77;17.90;;;22.10;99.90;;;;;;5008543;28;20215;-64
2022/08/27 11:15:55;;;;;;;23.52;21.27;;;22.10;99.90;;;;;;5008840;28;20867;-65
2022/08/27 11:18:38;;;;;;;20.30;18.40;;;22.20;99.90;;;;;;5001786;28;20258;-65
2022/08/27 11:21:37;;;;;;;18.63;16.75;;;22.20;99.90;;;;;;4991230;28;21025;-64
2022/08/27 11:24:27;;;;;;;20.90;19.00;;;22.20;99.90;;;;;;5007430;28;20218;-64
2022/08/27 11:26:59;;;;;;;23.20;20.80;;;22.20;99.90;;;;;;5007302;28;20453;-67
2022/08/27 11:29:31;;;;;;;22.90;20.70;;;22.20;99.90;;;;;;5009467;28;20464;-65
2022/08/27 11:32:05;;;;;;;21.80;19.70;;;22.10;99.90;;;;;;5002656;28;20456;-66
2022/08/27 11:34:46;;;;;;;21.58;19.45;;;22.00;99.90;;;;;;5004953;28;20211;-65
2022/08/27 11:37:20;;;;;;;23.02;20.73;;;22.00;99.90;;;;;;5008171;28;20179;-66
2022/08/27 11:40:20;;;;;;;22.73;20.60;;;22.00;99.90;;;;;;5005605;28;20206;-66
2022/08/27 11:42:50;;;;;;;22.73;20.48;;;22.00;99.90;;;;;;5008332;28;20179;-65
2022/08/27 11:45:27;;;;;;;26.97;24.47;;;21.70;99.90;;;;;;5002593;28;20221;-64
2022/08/27 11:47:59;;;;;;;25.73;23.33;;;21.70;99.90;;;;;;5008114;28;20445;-66
2022/08/27 11:50:27;;;;;;;23.25;21.00;;;21.60;99.90;;;;;;5009003;28;20256;-64
2022/08/27 11:53:01;;;;;;;24.52;22.33;;;21.60;99.90;;;;;;5007582;28;20187;-64
2022/08/27 11:55:35;;;;;;;24.20;22.00;;;21.70;99.90;;;;;;5008293;28;20186;-64
2022/08/27 11:58:22;;;;;;;24.08;21.98;;;21.90;99.90;;;;;;5008401;28;20202;-66
2022/08/27 12:00:48;;;;;;;24.50;22.05;;;22.00;99.90;;;;;;5006306;28;20725;-65
2022/08/27 12:03:33;;;;;;;24.05;21.63;;;21.90;99.90;;;;;;5007287;28;20198;-65
2022/08/27 12:06:38;;;;;;;25.30;22.70;;;21.80;99.90;;;;;;5008399;28;20190;-64
2022/08/27 12:09:14;;;;;;;22.00;20.05;;;21.80;99.90;;;;;;4996805;28;20215;-64
2022/08/27 12:11:57;;;;;;;20.85;18.88;;;22.00;99.90;;;;;;5008352;28;20186;-64
2022/08/27 12:15:02;;;;;;;23.30;21.02;;;22.20;99.90;;;;;;5005957;28;20647;-64
2022/08/27 12:17:38;;;;;;;25.20;22.95;;;22.30;99.90;;;;;;5002191;28;20202;-64
2022/08/27 12:20:13;;;;;;;21.55;19.50;;;22.30;99.90;;;;;;5008779;28;20202;-66
2022/08/27 12:25:39;;;;;;;23.20;21.10;;;22.40;99.90;;;;;;5001485;28;20206;-64
2022/08/27 12:28:07;;;;;;;24.03;21.73;;;22.50;99.90;;;;;;5007965;28;20437;-64
2022/08/27 12:30:40;;;;;;;23.25;21.20;;;22.40;99.90;;;;;;5001903;28;20212;-64
2022/08/27 12:33:16;;;;;;;21.73;19.73;;;22.50;99.90;;;;;;5004422;28;20289;-65
2022/08/27 12:35:50;;;;;;;21.77;19.67;;;22.70;99.90;;;;;;5009452;28;20429;-64
2022/08/27 12:38:36;;;;;;;23.30;21.20;;;22.80;99.90;;;;;;5011182;28;20440;-65
2022/08/27 12:41:07;;;;;;;21.87;19.87;;;22.90;99.90;;;;;;5012089;28;21087;-64
2022/08/27 12:43:34;;;;;;;23.63;21.53;;;22.80;99.90;;;;;;5008705;28;20485;-65
2022/08/27 12:46:27;;;;;;;27.67;25.27;;;22.90;99.90;;;;;;5009896;28;20454;-65
2022/08/27 12:48:58;;;;;;;22.73;20.70;;;22.90;99.90;;;;;;5005737;28;20868;-65
2022/08/27 12:51:30;;;;;;;23.13;20.80;;;22.90;99.90;;;;;;5007803;28;20474;-65
2022/08/27 12:54:20;;;;;;;24.43;22.27;;;22.60;99.90;;;;;;5011833;28;20468;-65
2022/08/27 12:57:13;;;;;;;24.08;21.58;;;22.70;99.90;;;;;;5010977;28;20438;-65